Hestrud (Nord, France) - 208 m
Donnes mto: Actuelle lundi, 27/01/2020 13:44
Date Horaire Temp Out Temp. 4 Temp. E. min Temp. E. max Temp. Sol 1 Hum Out Hum. Sol 1 Press Rain Wind Dir Dir Solar Ev.Tr. UV Hi Solar Rad Dew Point Windchill Wind (Gust)
27/01/2020 13:44 7,6 C 0,0 C 7,5 C 7,6 C 7,2 C 97 % 79 cb 1005,5 hPa 0,0 mm 9,7 km/h (2 Bft) O-SO 247 0 min 0,025 mm 0,0 UV-I 76 W/m 7,2 C 5,1 C 12,9 km/h (3 Bft)
27/01/2020 12:44 7,1 C 0,0 C 7,1 C 7,1 C 6,7 C 97 % 78 cb 1006,4 hPa 0,0 mm 6,4 km/h (2 Bft) SO 225 0 min 0,025 mm 0,0 UV-I 47 W/m 6,7 C 7,1 C 9,7 km/h (2 Bft)
27/01/2020 11:44 7,6 C 0,0 C 7,6 C 7,6 C 7,2 C 98 % 80 cb 1007,2 hPa 0,0 mm 11,3 km/h (2 Bft) SO 225 0 min 0,025 mm 0,0 UV-I 26 W/m 7,3 C 4,1 C 22,5 km/h (4 Bft)
27/01/2020 10:44 7,7 C 0,0 C 7,7 C 7,8 C 7,2 C 98 % 81 cb 1007,3 hPa 0,0 mm 11,3 km/h (2 Bft) SO 225 0 min 0,025 mm 0,0 UV-I 51 W/m 7,4 C 4,3 C 14,5 km/h (3 Bft)
27/01/2020 09:44 7,6 C 0,0 C 7,6 C 7,6 C 7,2 C 98 % 82 cb 1007,7 hPa 0,0 mm 8,0 km/h (2 Bft) S-SO 202 0 min 0,000 mm 0,0 UV-I 37 W/m 7,3 C 6,3 C 12,9 km/h (3 Bft)
27/01/2020 08:44 7,4 C 0,0 C 7,4 C 7,4 C 7,2 C 98 % 79 cb 1008,1 hPa 0,0 mm 9,7 km/h (2 Bft) SO 225 0 min 0,000 mm 0,0 UV-I 5 W/m 7,1 C 4,9 C 14,5 km/h (3 Bft)
27/01/2020 07:44 7,4 C 0,0 C 7,4 C 7,4 C 6,7 C 98 % 74 cb 1008,5 hPa 0,0 mm 12,9 km/h (3 Bft) S-SO 202 0 min 0,000 mm 0,0 UV-I 0 W/m 7,1 C 3,0 C 19,3 km/h (3 Bft)
27/01/2020 06:44 7,4 C 0,0 C 7,3 C 7,4 C 6,7 C 98 % 74 cb 1008,8 hPa 0,0 mm 16,1 km/h (3 Bft) O-SO 247 0 min 0,000 mm 0,0 UV-I 0 W/m 7,1 C 1,5 C 24,1 km/h (4 Bft)
27/01/2020 05:44 7,2 C 0,0 C 7,2 C 7,2 C 6,7 C 98 % 78 cb 1009,3 hPa 0,0 mm 4,8 km/h (1 Bft) S-SO 202 0 min 0,000 mm 0,0 UV-I 0 W/m 6,9 C 7,2 C 8,0 km/h (2 Bft)
27/01/2020 04:44 7,1 C 0,0 C 7,1 C 7,1 C 6,7 C 98 % 87 cb 1010,0 hPa 0,0 mm 16,1 km/h (3 Bft) O-SO 247 0 min 0,000 mm 0,0 UV-I 0 W/m 6,8 C 1,1 C 20,9 km/h (4 Bft)
27/01/2020 03:44 6,9 C 0,0 C 6,9 C 6,9 C 6,7 C 97 % 84 cb 1010,4 hPa 0,0 mm 14,5 km/h (3 Bft) S 180 0 min 0,000 mm 0,0 UV-I 0 W/m 6,5 C 1,6 C 22,5 km/h (4 Bft)
27/01/2020 02:44 6,9 C 0,0 C 6,9 C 6,9 C 6,7 C 97 % 76 cb 1010,8 hPa 0,6 mm 8,0 km/h (2 Bft) O-SO 247 0 min 0,000 mm 0,0 UV-I 0 W/m 6,5 C 5,6 C 16,1 km/h (3 Bft)
27/01/2020 01:44 6,8 C 0,0 C 6,8 C 6,8 C 6,1 C 97 % 81 cb 1011,8 hPa 0,2 mm 12,9 km/h (3 Bft) O-SO 247 0 min 0,000 mm 0,0 UV-I 0 W/m 6,4 C 2,3 C 16,1 km/h (3 Bft)
27/01/2020 00:44 6,8 C 0,0 C 6,8 C 6,8 C 6,1 C 96 % 88 cb 1012,2 hPa 0,6 mm 12,9 km/h (3 Bft) S 180 0 min 0,000 mm 0,0 UV-I 0 W/m 6,2 C 2,3 C 16,1 km/h (3 Bft)
26/01/2020 23:44 7,0 C 0,0 C 7,0 C 7,1 C 6,1 C 93 % 91 cb 1012,5 hPa 0,0 mm 16,1 km/h (3 Bft) SO 225 0 min 0,000 mm 0,0 UV-I 0 W/m 5,9 C 1,0 C 25,7 km/h (4 Bft)
26/01/2020 22:44 6,7 C 0,0 C 6,7 C 6,7 C 6,1 C 94 % 91 cb 1013,0 hPa 0,0 mm 14,5 km/h (3 Bft) S-SO 202 0 min 0,000 mm 0,0 UV-I 0 W/m 5,8 C 1,4 C 24,1 km/h (4 Bft)
26/01/2020 21:44 6,4 C 0,0 C 6,4 C 6,4 C 5,6 C 95 % 91 cb 1013,7 hPa 0,0 mm 14,5 km/h (3 Bft) SO 225 0 min 0,000 mm 0,0 UV-I 0 W/m 5,7 C 1,0 C 22,5 km/h (4 Bft)
26/01/2020 20:44 6,1 C 0,0 C 6,1 C 6,1 C 5,0 C 95 % 90 cb 1014,3 hPa 0,0 mm 4,8 km/h (1 Bft) O-SO 247 0 min 0,000 mm 0,0 UV-I 0 W/m 5,4 C 6,1 C 9,7 km/h (2 Bft)
26/01/2020 19:44 6,3 C 0,0 C 6,3 C 6,3 C 5,6 C 94 % 89 cb 1014,3 hPa 0,0 mm 12,9 km/h (3 Bft) O-SO 247 0 min 0,000 mm 0,0 UV-I 0 W/m 5,4 C 1,7 C 19,3 km/h (3 Bft)
26/01/2020 18:44 6,8 C 0,0 C 6,8 C 6,8 C 6,1 C 93 % 89 cb 1014,5 hPa 0,0 mm 12,9 km/h (3 Bft) SO 225 0 min 0,000 mm 0,0 UV-I 0 W/m 5,7 C 2,3 C 16,1 km/h (3 Bft)
26/01/2020 17:44 7,4 C 0,0 C 7,4 C 7,4 C 6,7 C 92 % 89 cb 1014,2 hPa 0,0 mm 12,9 km/h (3 Bft) O-SO 247 0 min 0,025 mm 0,0 UV-I 0 W/m 6,2 C 3,0 C 17,7 km/h (3 Bft)
26/01/2020 16:44 7,7 C 0,0 C 7,7 C 7,7 C 6,7 C 92 % 89 cb 1014,4 hPa 0,0 mm 14,5 km/h (3 Bft) SO 225 0 min 0,051 mm 0,0 UV-I 7 W/m 6,5 C 2,6 C 20,9 km/h (4 Bft)
26/01/2020 15:44 7,9 C 0,0 C 7,9 C 7,9 C 6,7 C 90 % 88 cb 1014,5 hPa 0,0 mm 11,3 km/h (2 Bft) SO 225 3 min 0,076 mm 0,0 UV-I 77 W/m 6,4 C 4,5 C 19,3 km/h (3 Bft)
26/01/2020 14:44 8,0 C 0,0 C 8,0 C 8,0 C 7,2 C 89 % 90 cb 1014,9 hPa 0,0 mm 12,9 km/h (3 Bft) SO 225 0 min 0,102 mm 0,5 UV-I 130 W/m 6,3 C 3,7 C 16,1 km/h (3 Bft)
26/01/2020 14:00 8,5 C 0,0 C 8,5 C 8,5 C 7,2 C 87 % 90 cb 1015,0 hPa 0,0 mm 8,0 km/h (2 Bft) S-SO 202 0 min 0,102 mm 0,6 UV-I 97 W/m 6,5 C 7,3 C 12,9 km/h (3 Bft)
_ Min-Heure 20:19 14:00 20:19 20:21 20:19 14:00 02:23 13:38 - 14:17 - - - - - - 20:19 23:33 14:17
Minimum _ 6,1 C 0,0 C 6,1 C 6,1 C 5,0 C 87 % 73 cb 1005,5 hPa - 3,2 km/h (1 Bft) - - - - - - 5,2 C -2,1 C 6,4 km/h (2 Bft)
_ Max-Heure 14:00 14:00 14:00 14:00 14:00 04:04 21:27 14:01 23:46 23:33 - - 14:51 14:00 14:00 14:51 10:46 14:05 23:16
Maximum _ 8,5 C 0,0 C 8,5 C 8,5 C 7,2 C 98 % 91 cb 1015,1 hPa 0,2 mm 24,1 km/h
SO (4 Bft)
- - 1 min 0,102 mm 0,6 UV-I 153 W/m 7,5 C 8,4 C 38,6 km/h
SO (5 Bft)
Moyenne _ 7,2 C 0,0 C 7,2 C 7,3 C 6,6 C 95 % 84 cb 1011,5 hPa #1,4 mm 12,0 km/h (2 Bft) SO - #0 min. #0,100 mm 0,0 UV-I 16 W/m 6,5 C 3,5 C 18,4 km/h (3 Bft)